Weather at Lakeview-Airport-Griffith Field

Public forecast

Using degrees Fahrenheit for public forecast. Weather courtesy of forecast.io.

Closest aviation weather report (METAR) to Lakeview-Airport-Griffith Field

Closest report is Roben Hood Airport, 19.3 nm (35.7 km) NNW. Retrieved 2020/09/29 16:35 UTC (0 seconds ago):

KRQB 291635Z AUTO 24008G16KT 190V290 10SM SCT031 BKN036 OVC060 16/08 A2980 RMK AO2 T01580077

Closest aviation forecast (TAF) to Lakeview-Airport-Griffith Field

Closest forecast is Gerald R. Ford International Airport, 36.1 nm (66.9 km) SSW. Retrieved 2020/09/29 12:24 UTC (4 hours ago):

TAF KGRR 291121Z 2912/3012 23005KT P6SM SCT027 BKN040 BKN060 FM291600 24010G20KT P6SM VCSH BKN035 BKN070 FM292100 24010KT P6SM SCT050 FM300100 21006KT P6SM VCSH BKN060 FM300300 21006KT 6SM -SHRA OVC045 FM300900 24007KT P6SM BKN050